createdAt,value
2023-03-31T00:01:45.974Z,41.22
2023-03-31T00:06:54.333Z,41.88
2023-03-31T00:11:57.696Z,44.90
2023-03-31T00:17:02.302Z,40.97
2023-03-31T00:22:06.681Z,41.17
2023-03-31T00:27:11.370Z,40.70
2023-03-31T00:32:15.352Z,41.55
2023-03-31T00:37:19.814Z,43.15
2023-03-31T00:42:22.925Z,42.80
2023-03-31T00:47:28.040Z,42.42
2023-03-31T00:52:37.657Z,44.67
2023-03-31T00:57:43.134Z,41.40
2023-03-31T01:02:52.544Z,42.92
2023-03-31T01:08:00.355Z,43.35
2023-03-31T01:13:04.791Z,40.72
2023-03-31T01:18:11.453Z,41.30
2023-03-31T01:23:37.320Z,40.95
2023-03-31T01:28:45.854Z,39.30
2023-03-31T01:34:23.324Z,40.58
2023-03-31T01:40:14.369Z,39.65
2023-03-31T01:45:27.446Z,42.28
2023-03-31T01:50:36.824Z,41.78
2023-03-31T01:55:43.465Z,41.30
2023-03-31T02:00:51.879Z,43.67
2023-03-31T02:05:58.367Z,40.92
2023-03-31T02:11:01.630Z,39.80
2023-03-31T02:16:11.702Z,41.58
2023-03-31T02:21:16.452Z,41.15
2023-03-31T02:26:24.437Z,40.55
2023-03-31T02:31:37.431Z,41.58
2023-03-31T02:36:45.411Z,41.72
2023-03-31T02:41:50.686Z,40.45
2023-03-31T02:46:56.729Z,42.60
2023-03-31T02:52:26.106Z,42.40
2023-03-31T02:57:49.934Z,43.78
2023-03-31T03:03:07.961Z,42.38
2023-03-31T03:08:22.469Z,41.65
2023-03-31T03:13:36.723Z,40.15
2023-03-31T03:18:41.277Z,41.78
2023-03-31T03:23:44.239Z,43.42
2023-03-31T03:28:47.101Z,41.08
2023-03-31T03:33:51.923Z,41.60
2023-03-31T03:38:54.800Z,40.67
2023-03-31T03:43:57.731Z,41.72
2023-03-31T03:49:02.173Z,45.03
2023-03-31T03:54:05.235Z,43.78
2023-03-31T03:59:08.182Z,41.92
2023-03-31T04:04:12.407Z,44.60
2023-03-31T04:09:15.528Z,42.53
2023-03-31T04:14:18.455Z,42.63
2023-03-31T04:19:25.815Z,46.03
2023-03-31T04:24:30.789Z,46.17
2023-03-31T04:29:37.143Z,43.42
2023-03-31T04:34:46.426Z,45.85
2023-03-31T04:39:50.560Z,46.03
2023-03-31T04:44:53.466Z,46.05
2023-03-31T04:49:57.664Z,41.03
2023-03-31T04:55:00.712Z,43.15
2023-03-31T05:00:07.270Z,40.65
2023-03-31T05:05:12.234Z,46.35
2023-03-31T05:10:15.426Z,45.30
2023-03-31T05:15:18.581Z,46.15
2023-03-31T05:20:22.951Z,43.50
2023-03-31T05:25:26.136Z,44.03
2023-03-31T05:30:29.737Z,46.33
2023-03-31T05:35:34.062Z,45.80
2023-03-31T05:40:37.040Z,41.35
2023-03-31T05:45:40.087Z,42.22
2023-03-31T05:50:44.367Z,43.10
2023-03-31T05:55:47.234Z,43.33
2023-03-31T06:00:50.150Z,43.17
2023-03-31T06:05:55.775Z,41.85
2023-03-31T06:10:58.784Z,43.97
2023-03-31T06:16:02.681Z,49.03
2023-03-31T06:21:07.990Z,43.80
2023-03-31T06:26:13.992Z,42.55
2023-03-31T06:31:19.017Z,40.28
2023-03-31T06:36:23.816Z,40.72
2023-03-31T06:41:27.341Z,40.13
2023-03-31T06:46:30.366Z,39.42
2023-03-31T06:51:34.776Z,40.38
2023-03-31T06:56:37.799Z,39.58
2023-03-31T07:01:42.482Z,41.58
2023-03-31T07:06:46.909Z,39.60
2023-03-31T07:11:50.213Z,38.88
2023-03-31T07:16:53.227Z,40.33
2023-03-31T07:21:57.582Z,39.30
2023-03-31T07:27:00.490Z,38.78
2023-03-31T07:32:03.428Z,38.47
2023-03-31T07:37:07.864Z,41.55
2023-03-31T07:42:10.814Z,38.88
2023-03-31T07:47:13.765Z,39.20
2023-03-31T07:52:19.726Z,38.80
2023-03-31T07:57:22.716Z,38.92
2023-03-31T08:02:26.159Z,38.33
2023-03-31T08:07:31.253Z,39.80
2023-03-31T08:12:34.221Z,38.67
2023-03-31T08:17:37.202Z,39.25
2023-03-31T08:22:42.302Z,39.30
2023-03-31T08:27:46.694Z,46.30
2023-03-31T08:32:49.578Z,39.25
2023-03-31T08:37:53.871Z,39.40
2023-03-31T08:43:02.221Z,38.90
2023-03-31T08:48:09.104Z,38.70
2023-03-31T08:53:23.936Z,38.63
2023-03-31T08:58:39.401Z,39.05
2023-03-31T09:03:49.498Z,41.47
2023-03-31T09:09:02.757Z,42.03
2023-03-31T09:14:18.831Z,39.90
2023-03-31T09:19:37.557Z,38.55
2023-03-31T09:24:52.003Z,38.05
2023-03-31T09:29:58.796Z,41.28
2023-03-31T09:35:13.082Z,40.38
2023-03-31T09:40:19.615Z,43.78
2023-03-31T09:45:22.573Z,42.33
2023-03-31T09:50:26.538Z,38.90
2023-03-31T09:55:42.900Z,41.58
2023-03-31T10:00:59.421Z,42.67
2023-03-31T10:06:10.286Z,43.53
2023-03-31T10:11:14.909Z,42.42
2023-03-31T10:16:23.820Z,43.42
2023-03-31T10:21:29.477Z,43.83
2023-03-31T10:26:33.878Z,44.33
2023-03-31T10:31:38.735Z,38.38
2023-03-31T10:36:52.412Z,40.88
2023-03-31T10:41:56.641Z,39.33
2023-03-31T10:47:06.908Z,40.15
2023-03-31T10:52:19.783Z,38.63
2023-03-31T10:57:36.821Z,37.25
2023-03-31T11:03:02.643Z,38.80
2023-03-31T11:08:23.705Z,39.50
2023-03-31T11:13:36.652Z,38.30
2023-03-31T11:18:59.420Z,39.90
2023-03-31T11:24:09.890Z,37.70
2023-03-31T11:29:27.869Z,37.75
2023-03-31T11:34:59.753Z,40.15
2023-03-31T11:40:18.612Z,50.15
2023-03-31T11:45:27.231Z,53.42
2023-03-31T11:50:34.424Z,45.58
2023-03-31T11:55:39.413Z,38.85
2023-03-31T12:00:47.997Z,39.92
2023-03-31T12:05:54.616Z,39.22
2023-03-31T12:11:03.596Z,38.97
2023-03-31T12:16:12.957Z,38.47
2023-03-31T12:21:16.446Z,41.25
2023-03-31T12:26:36.149Z,40.45
2023-03-31T12:31:44.092Z,38.40
2023-03-31T12:36:58.962Z,38.42
2023-03-31T12:42:40.764Z,40.88
2023-03-31T12:48:05.536Z,40.00
2023-03-31T12:53:22.591Z,41.78
2023-03-31T12:58:45.891Z,40.75
2023-03-31T13:04:11.137Z,43.95
2023-03-31T13:09:42.963Z,38.95
2023-03-31T13:14:48.427Z,38.15
2023-03-31T13:19:53.478Z,37.75
2023-03-31T13:25:28.241Z,38.28
2023-03-31T13:30:49.333Z,37.63
2023-03-31T13:36:00.311Z,37.75
2023-03-31T13:41:26.404Z,39.25
2023-03-31T13:47:08.432Z,37.53
2023-03-31T13:52:13.280Z,38.13
2023-03-31T13:58:03.202Z,38.35
2023-03-31T14:03:19.015Z,39.03
2023-03-31T14:08:35.603Z,38.90
2023-03-31T14:13:38.463Z,38.83
2023-03-31T14:18:51.322Z,39.55
2023-03-31T14:24:06.011Z,40.35
2023-03-31T14:29:15.257Z,39.00
2023-03-31T14:34:42.327Z,38.50
2023-03-31T14:39:48.349Z,39.92
2023-03-31T14:44:57.112Z,39.58
2023-03-31T14:50:02.625Z,38.30
2023-03-31T14:55:08.074Z,38.42
2023-03-31T15:00:25.444Z,37.90
2023-03-31T15:05:31.036Z,38.33
2023-03-31T15:10:39.832Z,39.60
2023-03-31T15:15:44.270Z,39.28
2023-03-31T15:20:47.781Z,38.20
2023-03-31T15:25:54.838Z,41.95
2023-03-31T15:31:09.642Z,39.70
2023-03-31T15:36:14.045Z,38.25
2023-03-31T15:41:18.820Z,37.75
2023-03-31T15:46:27.383Z,40.15
2023-03-31T15:51:35.361Z,38.80
2023-03-31T15:56:44.735Z,39.42
2023-03-31T16:01:47.979Z,40.63
2023-03-31T16:06:56.460Z,38.20
2023-03-31T16:12:06.010Z,37.80
2023-03-31T16:17:13.200Z,37.42
2023-03-31T16:22:21.928Z,38.60
2023-03-31T16:27:26.267Z,37.85
2023-03-31T16:32:29.245Z,38.10
2023-03-31T16:37:32.515Z,37.78
2023-03-31T16:42:36.754Z,37.67
2023-03-31T16:47:41.580Z,37.90
2023-03-31T16:52:47.223Z,38.67
2023-03-31T16:57:51.487Z,39.00
2023-03-31T17:02:54.807Z,39.13
2023-03-31T17:07:57.923Z,39.92
2023-03-31T17:13:03.317Z,38.35
2023-03-31T17:18:07.181Z,38.33
2023-03-31T17:23:10.343Z,39.42
2023-03-31T17:28:14.595Z,37.67
2023-03-31T17:33:18.476Z,37.75
2023-03-31T17:38:22.545Z,39.97
2023-03-31T17:43:27.469Z,37.83
2023-03-31T17:48:30.666Z,39.17
2023-03-31T17:53:33.553Z,38.08
2023-03-31T17:58:38.146Z,38.70
2023-03-31T18:03:41.386Z,37.70
2023-03-31T18:08:44.325Z,39.63
2023-03-31T18:13:48.854Z,38.58
2023-03-31T18:18:51.962Z,38.60
2023-03-31T18:23:57.095Z,41.72
2023-03-31T18:29:01.351Z,40.08
2023-03-31T18:34:04.264Z,37.80
2023-03-31T18:39:07.208Z,39.28
2023-03-31T18:44:11.437Z,39.17
2023-03-31T18:49:15.332Z,43.22
2023-03-31T18:54:22.658Z,39.35
2023-03-31T18:59:26.916Z,38.85
2023-03-31T19:04:30.171Z,37.97
2023-03-31T19:09:33.075Z,40.97
2023-03-31T19:14:37.629Z,40.50
2023-03-31T19:19:40.996Z,38.40
2023-03-31T19:24:45.031Z,38.20
2023-03-31T19:29:49.470Z,39.40
2023-03-31T19:34:52.760Z,38.35
2023-03-31T19:39:55.715Z,40.92
2023-03-31T19:44:59.949Z,39.78
2023-03-31T19:50:02.991Z,39.83
2023-03-31T19:55:15.490Z,38.33
2023-03-31T20:00:20.993Z,38.80
2023-03-31T20:05:23.910Z,37.47
2023-03-31T20:10:27.207Z,40.13
2023-03-31T20:15:32.543Z,38.53
2023-03-31T20:20:35.523Z,38.83
2023-03-31T20:25:38.616Z,38.97
2023-03-31T20:30:42.882Z,38.20
2023-03-31T20:35:46.954Z,37.60
2023-03-31T20:40:49.879Z,38.05
2023-03-31T20:46:02.963Z,38.55
2023-03-31T20:51:07.567Z,37.42
2023-03-31T20:56:12.087Z,39.75
2023-03-31T21:01:17.697Z,37.53
2023-03-31T21:06:21.116Z,39.92
2023-03-31T21:11:26.518Z,37.63
2023-03-31T21:16:30.784Z,38.03
2023-03-31T21:21:35.255Z,37.63
2023-03-31T21:26:38.162Z,39.00
2023-03-31T21:31:44.796Z,37.92
2023-03-31T21:36:50.029Z,37.88
2023-03-31T21:41:52.908Z,37.72
2023-03-31T21:46:57.222Z,38.35
2023-03-31T21:52:00.116Z,37.40
2023-03-31T21:57:03.106Z,38.00
2023-03-31T22:02:07.452Z,39.78
2023-03-31T22:07:10.591Z,37.38
2023-03-31T22:12:13.930Z,37.47
2023-03-31T22:17:18.171Z,37.88
2023-03-31T22:22:21.640Z,38.13
2023-03-31T22:27:24.523Z,37.92
2023-03-31T22:32:28.788Z,38.25
2023-03-31T22:37:31.726Z,37.80
2023-03-31T22:42:34.743Z,37.42
2023-03-31T22:47:39.092Z,37.65
2023-03-31T22:52:42.019Z,39.80
2023-03-31T22:57:45.924Z,39.67
2023-03-31T23:02:50.144Z,37.40
2023-03-31T23:07:53.018Z,38.67
2023-03-31T23:12:55.893Z,37.72
2023-03-31T23:18:00.202Z,38.25
2023-03-31T23:23:03.679Z,38.40
2023-03-31T23:28:07.432Z,40.50
2023-03-31T23:33:11.600Z,38.90
2023-03-31T23:38:14.462Z,37.95
2023-03-31T23:43:17.465Z,37.80
2023-03-31T23:48:22.136Z,37.22
2023-03-31T23:53:24.982Z,37.35
2023-03-31T23:58:28.328Z,36.97
